LFBL

Limoges-Bellegarde Airport

Airport
ICAO code
LFBL
Summary
ICAO Region
EUR
ICAO Territory
Location

Limoges, Limousin, France,

Coordinates
45° 51' 46" N , 1° 10' 46" E
KCC
Metar
Observation
LFBL 061600Z AUTO 07013KT 9999 BKN033 06/M01 Q1031 TEMPO 06015G25KT
Station
Limoges
Date/Time
2023-02-06 16:00:00
Wind direction
70°
Wind speed
13 kts
Lowest cloud amount
broken clouds
Temperature
6°C
Dew point
-1°C
Humidity
60%
QNH
1031 hPa
Weather condition
n/a

Description

International airport 6 km west-northwest of Limoges, France.

Climatology

Temperate Marine climate/Oceanic climate (Köppen climate classification Cfb). Moderately cool summer and comparatively warm winter with a temperature range of only 14°C. Prevailing south-westerly winds from the Atlantic Ocean.

Runways

Designator Length Width Surface Rops
3/21 2500 45 ASP Yes/Yes

Airport map

Aerial View

Airport accidents

SKYbrary Partners:

Safety knowledge contributed by: